sensor_id;sensor_type;location;lat;lon;timestamp;P1;durP1;ratioP1;P2;durP2;ratioP2
68843;SDS011;55850;51.244;6.824;2022-07-04T00:00:37;1.02;;;0.70;;
68843;SDS011;55850;51.244;6.824;2022-07-04T00:05:45;2.53;;;0.70;;
68843;SDS011;55850;51.244;6.824;2022-07-04T00:10:50;2.70;;;0.80;;
68843;SDS011;55850;51.244;6.824;2022-07-04T00:15:56;1.27;;;0.82;;
68843;SDS011;55850;51.244;6.824;2022-07-04T00:21:04;1.80;;;0.93;;
68843;SDS011;55850;51.244;6.824;2022-07-04T00:26:12;1.80;;;0.80;;
68843;SDS011;55850;51.244;6.824;2022-07-04T00:31:20;1.98;;;1.17;;
68843;SDS011;55850;51.244;6.824;2022-07-04T00:36:28;2.13;;;1.00;;
68843;SDS011;55850;51.244;6.824;2022-07-04T00:41:34;2.50;;;0.93;;
68843;SDS011;55850;51.244;6.824;2022-07-04T00:46:39;2.10;;;0.80;;
68843;SDS011;55850;51.244;6.824;2022-07-04T00:51:47;2.75;;;1.25;;
68843;SDS011;55850;51.244;6.824;2022-07-04T00:56:53;3.93;;;1.00;;
68843;SDS011;55850;51.244;6.824;2022-07-04T01:02:02;1.87;;;1.00;;
68843;SDS011;55850;51.244;6.824;2022-07-04T01:07:10;2.22;;;1.10;;
68843;SDS011;55850;51.244;6.824;2022-07-04T01:12:24;2.22;;;0.90;;
68843;SDS011;55850;51.244;6.824;2022-07-04T01:17:30;4.33;;;0.80;;
68843;SDS011;55850;51.244;6.824;2022-07-04T01:22:39;2.25;;;1.08;;
68843;SDS011;55850;51.244;6.824;2022-07-04T01:27:45;1.92;;;0.70;;
68843;SDS011;55850;51.244;6.824;2022-07-04T01:32:50;2.40;;;0.83;;
68843;SDS011;55850;51.244;6.824;2022-07-04T01:37:59;1.85;;;0.90;;
68843;SDS011;55850;51.244;6.824;2022-07-04T01:43:04;2.78;;;0.95;;
68843;SDS011;55850;51.244;6.824;2022-07-04T01:48:11;1.70;;;0.90;;
68843;SDS011;55850;51.244;6.824;2022-07-04T01:53:20;1.80;;;0.93;;
68843;SDS011;55850;51.244;6.824;2022-07-04T01:58:25;2.65;;;0.93;;
68843;SDS011;55850;51.244;6.824;2022-07-04T02:03:30;2.60;;;0.90;;
68843;SDS011;55850;51.244;6.824;2022-07-04T02:08:38;1.93;;;1.00;;
68843;SDS011;55850;51.244;6.824;2022-07-04T02:13:56;3.38;;;1.02;;
68843;SDS011;55850;51.244;6.824;2022-07-04T02:19:01;2.75;;;1.23;;
68843;SDS011;55850;51.244;6.824;2022-07-04T02:24:09;2.43;;;1.20;;
68843;SDS011;55850;51.244;6.824;2022-07-04T02:29:15;3.70;;;1.30;;
68843;SDS011;55850;51.244;6.824;2022-07-04T02:34:21;3.05;;;1.25;;
68843;SDS011;55850;51.244;6.824;2022-07-04T02:39:29;3.40;;;1.40;;
68843;SDS011;55850;51.244;6.824;2022-07-04T02:44:34;3.03;;;1.47;;
68843;SDS011;55850;51.244;6.824;2022-07-04T02:49:39;3.00;;;1.33;;
68843;SDS011;55850;51.244;6.824;2022-07-04T02:54:47;4.50;;;1.30;;
68843;SDS011;55850;51.244;6.824;2022-07-04T02:59:54;2.93;;;1.27;;
68843;SDS011;55850;51.244;6.824;2022-07-04T03:04:59;4.28;;;1.65;;
68843;SDS011;55850;51.244;6.824;2022-07-04T03:10:08;3.47;;;1.10;;
68843;SDS011;55850;51.244;6.824;2022-07-04T03:15:14;1.90;;;0.97;;
68843;SDS011;55850;51.244;6.824;2022-07-04T03:20:19;4.25;;;1.63;;
68843;SDS011;55850;51.244;6.824;2022-07-04T03:25:27;4.70;;;1.92;;
68843;SDS011;55850;51.244;6.824;2022-07-04T03:30:33;3.23;;;1.70;;
68843;SDS011;55850;51.244;6.824;2022-07-04T03:35:38;3.53;;;2.00;;
68843;SDS011;55850;51.244;6.824;2022-07-04T03:40:46;9.00;;;2.60;;
68843;SDS011;55850;51.244;6.824;2022-07-04T03:45:51;3.85;;;1.90;;
68843;SDS011;55850;51.244;6.824;2022-07-04T03:50:57;1.60;;;1.20;;
68843;SDS011;55850;51.244;6.824;2022-07-04T03:56:05;2.80;;;1.60;;
68843;SDS011;55850;51.244;6.824;2022-07-04T04:01:11;3.22;;;1.42;;
68843;SDS011;55850;51.244;6.824;2022-07-04T04:06:16;2.87;;;1.40;;
68843;SDS011;55850;51.244;6.824;2022-07-04T04:11:24;4.13;;;1.60;;
68843;SDS011;55850;51.244;6.824;2022-07-04T04:16:29;2.22;;;1.40;;
68843;SDS011;55850;51.244;6.824;2022-07-04T04:21:37;3.50;;;1.60;;
68843;SDS011;55850;51.244;6.824;2022-07-04T04:26:45;3.50;;;1.93;;
68843;SDS011;55850;51.244;6.824;2022-07-04T04:31:50;2.60;;;1.58;;
68843;SDS011;55850;51.244;6.824;2022-07-04T04:36:55;5.80;;;1.90;;
68843;SDS011;55850;51.244;6.824;2022-07-04T04:42:03;3.37;;;1.87;;
68843;SDS011;55850;51.244;6.824;2022-07-04T04:47:09;5.70;;;2.13;;
68843;SDS011;55850;51.244;6.824;2022-07-04T04:52:14;2.72;;;1.88;;
68843;SDS011;55850;51.244;6.824;2022-07-04T04:57:22;3.00;;;1.83;;
68843;SDS011;55850;51.244;6.824;2022-07-04T05:02:28;4.43;;;2.17;;
68843;SDS011;55850;51.244;6.824;2022-07-04T05:07:33;6.22;;;2.25;;
68843;SDS011;55850;51.244;6.824;2022-07-04T05:12:41;3.27;;;2.30;;
68843;SDS011;55850;51.244;6.824;2022-07-04T05:17:47;4.93;;;2.07;;
68843;SDS011;55850;51.244;6.824;2022-07-04T05:22:53;4.70;;;2.20;;
68843;SDS011;55850;51.244;6.824;2022-07-04T05:28:04;3.53;;;2.13;;
68843;SDS011;55850;51.244;6.824;2022-07-04T05:33:11;3.23;;;2.37;;
68843;SDS011;55850;51.244;6.824;2022-07-04T05:38:17;6.78;;;2.42;;
68843;SDS011;55850;51.244;6.824;2022-07-04T05:43:25;5.32;;;2.15;;
68843;SDS011;55850;51.244;6.824;2022-07-04T05:48:31;4.03;;;2.43;;
68843;SDS011;55850;51.244;6.824;2022-07-04T05:53:36;7.45;;;2.85;;
68843;SDS011;55850;51.244;6.824;2022-07-04T05:58:44;6.85;;;2.40;;
68843;SDS011;55850;51.244;6.824;2022-07-04T06:03:49;4.03;;;2.83;;
68843;SDS011;55850;51.244;6.824;2022-07-04T06:08:55;6.23;;;2.17;;
68843;SDS011;55850;51.244;6.824;2022-07-04T06:14:03;10.50;;;2.72;;
68843;SDS011;55850;51.244;6.824;2022-07-04T06:19:09;5.30;;;1.83;;
68843;SDS011;55850;51.244;6.824;2022-07-04T06:24:14;7.50;;;2.20;;
68843;SDS011;55850;51.244;6.824;2022-07-04T06:29:23;4.53;;;1.83;;
68843;SDS011;55850;51.244;6.824;2022-07-04T06:34:28;5.60;;;2.28;;
68843;SDS011;55850;51.244;6.824;2022-07-04T06:39:47;5.33;;;2.10;;
68843;SDS011;55850;51.244;6.824;2022-07-04T06:44:55;5.72;;;2.40;;
68843;SDS011;55850;51.244;6.824;2022-07-04T06:50:00;2.92;;;1.38;;
68843;SDS011;55850;51.244;6.824;2022-07-04T06:55:26;4.03;;;1.67;;
68843;SDS011;55850;51.244;6.824;2022-07-04T07:00:43;9.47;;;1.60;;
68843;SDS011;55850;51.244;6.824;2022-07-04T07:05:48;3.08;;;1.30;;
68843;SDS011;55850;51.244;6.824;2022-07-04T07:11:02;4.00;;;1.40;;
68843;SDS011;55850;51.244;6.824;2022-07-04T07:16:22;4.47;;;1.50;;
68843;SDS011;55850;51.244;6.824;2022-07-04T07:21:27;5.05;;;1.88;;
68843;SDS011;55850;51.244;6.824;2022-07-04T07:26:32;2.72;;;1.10;;
68843;SDS011;55850;51.244;6.824;2022-07-04T07:31:40;4.33;;;1.40;;
68843;SDS011;55850;51.244;6.824;2022-07-04T07:36:46;4.43;;;1.38;;
68843;SDS011;55850;51.244;6.824;2022-07-04T07:41:52;4.53;;;1.30;;
68843;SDS011;55850;51.244;6.824;2022-07-04T07:47:00;4.37;;;1.10;;
68843;SDS011;55850;51.244;6.824;2022-07-04T07:52:06;3.07;;;1.00;;
68843;SDS011;55850;51.244;6.824;2022-07-04T07:57:11;1.83;;;1.00;;
68843;SDS011;55850;51.244;6.824;2022-07-04T08:02:19;2.17;;;0.75;;
68843;SDS011;55850;51.244;6.824;2022-07-04T08:07:45;4.97;;;0.50;;
68843;SDS011;55850;51.244;6.824;2022-07-04T08:12:50;1.50;;;1.20;;
68843;SDS011;55850;51.244;6.824;2022-07-04T08:17:58;2.95;;;0.80;;
68843;SDS011;55850;51.244;6.824;2022-07-04T08:23:04;3.77;;;0.80;;
68843;SDS011;55850;51.244;6.824;2022-07-04T08:28:10;2.95;;;1.00;;
68843;SDS011;55850;51.244;6.824;2022-07-04T08:33:18;2.42;;;0.80;;
68843;SDS011;55850;51.244;6.824;2022-07-04T08:38:24;3.33;;;0.87;;
68843;SDS011;55850;51.244;6.824;2022-07-04T08:43:30;2.70;;;0.83;;
68843;SDS011;55850;51.244;6.824;2022-07-04T08:48:41;2.60;;;1.00;;
68843;SDS011;55850;51.244;6.824;2022-07-04T08:53:48;3.35;;;0.90;;
68843;SDS011;55850;51.244;6.824;2022-07-04T08:58:56;3.40;;;0.80;;
68843;SDS011;55850;51.244;6.824;2022-07-04T09:04:05;1.90;;;0.80;;
68843;SDS011;55850;51.244;6.824;2022-07-04T09:09:10;3.08;;;0.80;;
68843;SDS011;55850;51.244;6.824;2022-07-04T09:14:17;1.83;;;1.00;;
68843;SDS011;55850;51.244;6.824;2022-07-04T09:19:28;4.07;;;1.00;;
68843;SDS011;55850;51.244;6.824;2022-07-04T09:24:47;2.38;;;1.10;;
68843;SDS011;55850;51.244;6.824;2022-07-04T09:29:53;2.70;;;1.00;;
68843;SDS011;55850;51.244;6.824;2022-07-04T09:35:02;1.70;;;0.80;;
68843;SDS011;55850;51.244;6.824;2022-07-04T09:40:08;3.40;;;1.05;;
68843;SDS011;55850;51.244;6.824;2022-07-04T09:45:17;4.90;;;1.10;;
68843;SDS011;55850;51.244;6.824;2022-07-04T09:50:29;3.83;;;1.07;;
68843;SDS011;55850;51.244;6.824;2022-07-04T09:55:35;4.60;;;1.10;;
68843;SDS011;55850;51.244;6.824;2022-07-04T10:00:42;2.58;;;1.00;;
68843;SDS011;55850;51.244;6.824;2022-07-04T10:06:04;1.63;;;0.87;;
68843;SDS011;55850;51.244;6.824;2022-07-04T10:11:11;3.08;;;0.93;;
68843;SDS011;55850;51.244;6.824;2022-07-04T10:16:20;3.00;;;0.90;;
68843;SDS011;55850;51.244;6.824;2022-07-04T10:21:28;2.93;;;1.07;;
68843;SDS011;55850;51.244;6.824;2022-07-04T10:26:35;1.53;;;0.87;;
68843;SDS011;55850;51.244;6.824;2022-07-04T10:31:41;2.35;;;1.08;;
68843;SDS011;55850;51.244;6.824;2022-07-04T10:36:53;3.45;;;1.17;;
68843;SDS011;55850;51.244;6.824;2022-07-04T10:41:59;3.47;;;1.00;;
68843;SDS011;55850;51.244;6.824;2022-07-04T10:47:05;1.77;;;1.00;;
68843;SDS011;55850;51.244;6.824;2022-07-04T10:52:13;1.55;;;1.00;;
68843;SDS011;55850;51.244;6.824;2022-07-04T10:57:19;1.67;;;0.80;;
68843;SDS011;55850;51.244;6.824;2022-07-04T11:02:27;3.35;;;1.10;;
68843;SDS011;55850;51.244;6.824;2022-07-04T11:13:17;2.33;;;1.00;;
68843;SDS011;55850;51.244;6.824;2022-07-04T11:18:23;3.30;;;1.00;;
68843;SDS011;55850;51.244;6.824;2022-07-04T11:23:31;2.42;;;0.90;;
68843;SDS011;55850;51.244;6.824;2022-07-04T11:28:36;2.53;;;0.90;;
68843;SDS011;55850;51.244;6.824;2022-07-04T11:33:46;2.00;;;1.00;;
68843;SDS011;55850;51.244;6.824;2022-07-04T11:38:56;2.30;;;0.70;;
68843;SDS011;55850;51.244;6.824;2022-07-04T11:44:03;4.10;;;1.23;;
68843;SDS011;55850;51.244;6.824;2022-07-04T11:49:22;2.87;;;0.80;;
68843;SDS011;55850;51.244;6.824;2022-07-04T11:54:30;2.83;;;1.10;;
68843;SDS011;55850;51.244;6.824;2022-07-04T11:59:57;2.90;;;1.02;;
68843;SDS011;55850;51.244;6.824;2022-07-04T12:05:06;1.87;;;0.80;;
68843;SDS011;55850;51.244;6.824;2022-07-04T12:10:16;2.87;;;1.13;;
68843;SDS011;55850;51.244;6.824;2022-07-04T12:15:35;1.10;;;0.80;;
68843;SDS011;55850;51.244;6.824;2022-07-04T12:20:42;2.72;;;1.00;;
68843;SDS011;55850;51.244;6.824;2022-07-04T12:25:50;1.97;;;0.70;;
68843;SDS011;55850;51.244;6.824;2022-07-04T12:30:57;1.38;;;0.70;;
68843;SDS011;55850;51.244;6.824;2022-07-04T12:36:04;3.08;;;0.98;;
68843;SDS011;55850;51.244;6.824;2022-07-04T12:41:13;1.93;;;0.70;;
68843;SDS011;55850;51.244;6.824;2022-07-04T12:46:28;2.58;;;1.20;;
68843;SDS011;55850;51.244;6.824;2022-07-04T12:51:48;1.38;;;0.85;;
68843;SDS011;55850;51.244;6.824;2022-07-04T12:57:02;2.83;;;0.63;;
68843;SDS011;55850;51.244;6.824;2022-07-04T13:02:09;2.17;;;1.00;;
68843;SDS011;55850;51.244;6.824;2022-07-04T13:07:17;2.15;;;0.80;;
68843;SDS011;55850;51.244;6.824;2022-07-04T13:12:25;2.03;;;0.82;;
68843;SDS011;55850;51.244;6.824;2022-07-04T13:17:30;2.37;;;1.23;;
68843;SDS011;55850;51.244;6.824;2022-07-04T13:22:36;2.55;;;1.15;;
68843;SDS011;55850;51.244;6.824;2022-07-04T13:27:44;2.17;;;0.90;;
68843;SDS011;55850;51.244;6.824;2022-07-04T13:32:50;3.33;;;1.00;;
68843;SDS011;55850;51.244;6.824;2022-07-04T13:37:55;3.30;;;0.90;;
68843;SDS011;55850;51.244;6.824;2022-07-04T13:43:04;2.90;;;1.17;;
68843;SDS011;55850;51.244;6.824;2022-07-04T13:48:13;3.93;;;0.90;;
68843;SDS011;55850;51.244;6.824;2022-07-04T13:53:18;3.33;;;1.13;;
68843;SDS011;55850;51.244;6.824;2022-07-04T13:58:26;2.72;;;0.90;;
68843;SDS011;55850;51.244;6.824;2022-07-04T14:03:32;0.98;;;0.82;;
68843;SDS011;55850;51.244;6.824;2022-07-04T14:08:37;3.33;;;1.00;;
68843;SDS011;55850;51.244;6.824;2022-07-04T14:13:45;3.88;;;0.95;;
68843;SDS011;55850;51.244;6.824;2022-07-04T14:18:51;3.25;;;1.10;;
68843;SDS011;55850;51.244;6.824;2022-07-04T14:23:59;2.03;;;0.90;;
68843;SDS011;55850;51.244;6.824;2022-07-04T14:29:07;2.47;;;0.82;;
68843;SDS011;55850;51.244;6.824;2022-07-04T14:34:12;2.80;;;1.10;;
68843;SDS011;55850;51.244;6.824;2022-07-04T14:39:18;1.33;;;0.93;;
68843;SDS011;55850;51.244;6.824;2022-07-04T14:44:26;3.13;;;1.10;;
68843;SDS011;55850;51.244;6.824;2022-07-04T14:49:31;4.90;;;1.02;;
68843;SDS011;55850;51.244;6.824;2022-07-04T14:54:37;3.60;;;1.00;;
68843;SDS011;55850;51.244;6.824;2022-07-04T14:59:47;2.13;;;1.03;;
68843;SDS011;55850;51.244;6.824;2022-07-04T15:04:52;1.63;;;0.85;;
68843;SDS011;55850;51.244;6.824;2022-07-04T15:09:57;5.10;;;1.15;;
68843;SDS011;55850;51.244;6.824;2022-07-04T15:15:07;2.13;;;0.90;;
68843;SDS011;55850;51.244;6.824;2022-07-04T15:20:28;1.20;;;0.80;;
68843;SDS011;55850;51.244;6.824;2022-07-04T15:25:46;1.55;;;1.00;;
68843;SDS011;55850;51.244;6.824;2022-07-04T15:30:55;2.53;;;0.90;;
68843;SDS011;55850;51.244;6.824;2022-07-04T15:36:05;1.53;;;0.90;;
68843;SDS011;55850;51.244;6.824;2022-07-04T15:41:11;3.20;;;0.80;;
68843;SDS011;55850;51.244;6.824;2022-07-04T15:46:20;2.35;;;0.68;;
68843;SDS011;55850;51.244;6.824;2022-07-04T15:51:25;1.73;;;0.70;;
68843;SDS011;55850;51.244;6.824;2022-07-04T15:56:46;2.22;;;1.02;;
68843;SDS011;55850;51.244;6.824;2022-07-04T16:01:54;1.35;;;0.70;;
68843;SDS011;55850;51.244;6.824;2022-07-04T16:07:00;2.97;;;1.20;;
68843;SDS011;55850;51.244;6.824;2022-07-04T16:12:08;1.63;;;0.80;;
68843;SDS011;55850;51.244;6.824;2022-07-04T16:17:16;3.65;;;0.95;;
68843;SDS011;55850;51.244;6.824;2022-07-04T16:22:22;1.10;;;0.80;;
68843;SDS011;55850;51.244;6.824;2022-07-04T16:27:28;4.03;;;1.07;;
68843;SDS011;55850;51.244;6.824;2022-07-04T16:32:36;6.63;;;0.93;;
68843;SDS011;55850;51.244;6.824;2022-07-04T16:37:42;2.72;;;0.80;;
68843;SDS011;55850;51.244;6.824;2022-07-04T16:42:47;2.37;;;1.00;;
68843;SDS011;55850;51.244;6.824;2022-07-04T16:47:56;2.00;;;0.90;;
68843;SDS011;55850;51.244;6.824;2022-07-04T16:53:02;1.85;;;0.82;;
68843;SDS011;55850;51.244;6.824;2022-07-04T16:58:07;3.57;;;1.00;;
68843;SDS011;55850;51.244;6.824;2022-07-04T17:03:16;3.97;;;1.10;;
68843;SDS011;55850;51.244;6.824;2022-07-04T17:08:24;3.35;;;0.82;;
68843;SDS011;55850;51.244;6.824;2022-07-04T17:13:30;1.83;;;0.83;;
68843;SDS011;55850;51.244;6.824;2022-07-04T17:18:38;2.97;;;0.70;;
68843;SDS011;55850;51.244;6.824;2022-07-04T17:23:44;3.72;;;1.02;;
68843;SDS011;55850;51.244;6.824;2022-07-04T17:28:50;2.53;;;1.00;;
68843;SDS011;55850;51.244;6.824;2022-07-04T17:33:58;4.70;;;1.10;;
68843;SDS011;55850;51.244;6.824;2022-07-04T17:39:04;2.38;;;1.20;;
68843;SDS011;55850;51.244;6.824;2022-07-04T17:44:11;2.38;;;1.20;;
68843;SDS011;55850;51.244;6.824;2022-07-04T17:49:20;2.47;;;1.10;;
68843;SDS011;55850;51.244;6.824;2022-07-04T17:54:25;1.77;;;0.90;;
68843;SDS011;55850;51.244;6.824;2022-07-04T17:59:51;1.52;;;1.10;;
68843;SDS011;55850;51.244;6.824;2022-07-04T18:04:59;2.40;;;1.00;;
68843;SDS011;55850;51.244;6.824;2022-07-04T18:10:05;1.60;;;1.10;;
68843;SDS011;55850;51.244;6.824;2022-07-04T18:15:13;1.45;;;1.00;;
68843;SDS011;55850;51.244;6.824;2022-07-04T18:20:22;2.28;;;1.00;;
68843;SDS011;55850;51.244;6.824;2022-07-04T18:25:27;2.83;;;0.97;;
68843;SDS011;55850;51.244;6.824;2022-07-04T18:30:33;3.70;;;1.10;;
68843;SDS011;55850;51.244;6.824;2022-07-04T18:35:42;3.15;;;1.30;;
68843;SDS011;55850;51.244;6.824;2022-07-04T18:40:49;2.33;;;1.30;;
68843;SDS011;55850;51.244;6.824;2022-07-04T18:46:16;1.48;;;1.20;;
68843;SDS011;55850;51.244;6.824;2022-07-04T18:51:24;4.65;;;1.42;;
68843;SDS011;55850;51.244;6.824;2022-07-04T18:56:31;4.33;;;1.30;;
68843;SDS011;55850;51.244;6.824;2022-07-04T19:01:37;8.13;;;1.80;;
68843;SDS011;55850;51.244;6.824;2022-07-04T19:06:45;3.25;;;1.50;;
68843;SDS011;55850;51.244;6.824;2022-07-04T19:11:51;3.35;;;1.40;;
68843;SDS011;55850;51.244;6.824;2022-07-04T19:16:56;4.27;;;1.70;;
68843;SDS011;55850;51.244;6.824;2022-07-04T19:22:04;6.40;;;1.92;;
68843;SDS011;55850;51.244;6.824;2022-07-04T19:27:10;2.30;;;1.60;;
68843;SDS011;55850;51.244;6.824;2022-07-04T19:32:16;6.00;;;2.10;;
68843;SDS011;55850;51.244;6.824;2022-07-04T19:37:25;2.40;;;2.03;;
68843;SDS011;55850;51.244;6.824;2022-07-04T19:42:30;4.93;;;2.30;;
68843;SDS011;55850;51.244;6.824;2022-07-04T19:47:35;4.73;;;2.00;;
68843;SDS011;55850;51.244;6.824;2022-07-04T19:52:43;4.07;;;2.00;;
68843;SDS011;55850;51.244;6.824;2022-07-04T19:57:49;5.32;;;1.90;;
68843;SDS011;55850;51.244;6.824;2022-07-04T20:02:56;4.65;;;1.83;;
68843;SDS011;55850;51.244;6.824;2022-07-04T20:08:04;3.23;;;1.97;;
68843;SDS011;55850;51.244;6.824;2022-07-04T20:13:09;4.40;;;2.00;;
68843;SDS011;55850;51.244;6.824;2022-07-04T20:18:15;4.88;;;1.77;;
68843;SDS011;55850;51.244;6.824;2022-07-04T20:23:25;3.97;;;2.07;;
68843;SDS011;55850;51.244;6.824;2022-07-04T20:28:33;3.30;;;1.75;;
68843;SDS011;55850;51.244;6.824;2022-07-04T20:33:39;3.42;;;2.13;;
68843;SDS011;55850;51.244;6.824;2022-07-04T20:38:49;5.63;;;1.83;;
68843;SDS011;55850;51.244;6.824;2022-07-04T20:43:54;3.10;;;1.90;;
68843;SDS011;55850;51.244;6.824;2022-07-04T20:49:00;3.75;;;2.20;;
68843;SDS011;55850;51.244;6.824;2022-07-04T20:54:14;2.88;;;1.83;;
68843;SDS011;55850;51.244;6.824;2022-07-04T20:59:20;4.87;;;1.83;;
68843;SDS011;55850;51.244;6.824;2022-07-04T21:04:25;3.20;;;2.20;;
68843;SDS011;55850;51.244;6.824;2022-07-04T21:09:33;2.33;;;1.75;;
68843;SDS011;55850;51.244;6.824;2022-07-04T21:14:42;3.23;;;2.03;;
68843;SDS011;55850;51.244;6.824;2022-07-04T21:19:48;3.30;;;2.10;;
68843;SDS011;55850;51.244;6.824;2022-07-04T21:24:57;3.60;;;2.10;;
68843;SDS011;55850;51.244;6.824;2022-07-04T21:30:05;3.63;;;2.37;;
68843;SDS011;55850;51.244;6.824;2022-07-04T21:35:14;6.00;;;2.20;;
68843;SDS011;55850;51.244;6.824;2022-07-04T21:40:31;2.25;;;1.88;;
68843;SDS011;55850;51.244;6.824;2022-07-04T21:45:37;2.95;;;2.20;;
68843;SDS011;55850;51.244;6.824;2022-07-04T21:50:42;3.73;;;1.63;;
68843;SDS011;55850;51.244;6.824;2022-07-04T21:55:50;4.53;;;2.28;;
68843;SDS011;55850;51.244;6.824;2022-07-04T22:00:56;2.17;;;1.90;;
68843;SDS011;55850;51.244;6.824;2022-07-04T22:06:04;5.20;;;2.00;;
68843;SDS011;55850;51.244;6.824;2022-07-04T22:11:12;3.22;;;2.30;;
68843;SDS011;55850;51.244;6.824;2022-07-04T22:16:18;5.68;;;1.95;;
68843;SDS011;55850;51.244;6.824;2022-07-04T22:21:23;3.77;;;2.40;;
68843;SDS011;55850;51.244;6.824;2022-07-04T22:26:31;3.60;;;2.00;;
68843;SDS011;55850;51.244;6.824;2022-07-04T22:38:13;5.35;;;2.00;;
68843;SDS011;55850;51.244;6.824;2022-07-04T22:43:21;3.77;;;2.40;;
68843;SDS011;55850;51.244;6.824;2022-07-04T22:48:27;4.10;;;2.20;;
68843;SDS011;55850;51.244;6.824;2022-07-04T22:53:32;4.47;;;1.80;;
68843;SDS011;55850;51.244;6.824;2022-07-04T22:58:52;2.83;;;1.80;;
68843;SDS011;55850;51.244;6.824;2022-07-04T23:03:58;4.75;;;2.22;;
68843;SDS011;55850;51.244;6.824;2022-07-04T23:09:04;3.65;;;1.70;;
68843;SDS011;55850;51.244;6.824;2022-07-04T23:14:12;10.77;;;2.27;;
68843;SDS011;55850;51.244;6.824;2022-07-04T23:19:17;3.23;;;2.07;;
68843;SDS011;55850;51.244;6.824;2022-07-04T23:24:23;2.47;;;1.88;;
68843;SDS011;55850;51.244;6.824;2022-07-04T23:29:31;4.07;;;2.10;;
68843;SDS011;55850;51.244;6.824;2022-07-04T23:34:38;2.70;;;1.80;;
68843;SDS011;55850;51.244;6.824;2022-07-04T23:39:44;4.95;;;2.00;;
68843;SDS011;55850;51.244;6.824;2022-07-04T23:44:52;2.42;;;1.90;;
68843;SDS011;55850;51.244;6.824;2022-07-04T23:49:57;4.17;;;2.10;;
68843;SDS011;55850;51.244;6.824;2022-07-04T23:55:03;3.13;;;1.60;;
